sensor_id;sensor_type;location;lat;lon;timestamp;P1;durP1;ratioP1;P2;durP2;ratioP2
43996;SDS011;34318;45.818;15.964;2023-03-01T00:01:37;12.65;;;8.43;;
43996;SDS011;34318;45.818;15.964;2023-03-01T00:04:04;11.70;;;8.65;;
43996;SDS011;34318;45.818;15.964;2023-03-01T00:06:31;11.05;;;9.77;;
43996;SDS011;34318;45.818;15.964;2023-03-01T00:08:59;9.80;;;8.55;;
43996;SDS011;34318;45.818;15.964;2023-03-01T00:11:27;10.20;;;8.23;;
43996;SDS011;34318;45.818;15.964;2023-03-01T00:13:56;11.70;;;9.07;;
43996;SDS011;34318;45.818;15.964;2023-03-01T00:16:24;9.30;;;8.15;;
43996;SDS011;34318;45.818;15.964;2023-03-01T00:18:55;10.07;;;8.75;;
43996;SDS011;34318;45.818;15.964;2023-03-01T00:21:23;9.75;;;8.40;;
43996;SDS011;34318;45.818;15.964;2023-03-01T00:23:50;9.00;;;8.10;;
43996;SDS011;34318;45.818;15.964;2023-03-01T00:26:18;9.40;;;8.43;;
43996;SDS011;34318;45.818;15.964;2023-03-01T00:28:45;11.75;;;8.70;;
43996;SDS011;34318;45.818;15.964;2023-03-01T00:31:16;10.48;;;8.73;;
43996;SDS011;34318;45.818;15.964;2023-03-01T00:33:43;9.85;;;8.55;;
43996;SDS011;34318;45.818;15.964;2023-03-01T00:36:11;10.07;;;8.88;;
43996;SDS011;34318;45.818;15.964;2023-03-01T00:38:40;10.23;;;8.23;;
43996;SDS011;34318;45.818;15.964;2023-03-01T00:41:09;9.25;;;8.35;;
43996;SDS011;34318;45.818;15.964;2023-03-01T00:43:36;8.60;;;7.78;;
43996;SDS011;34318;45.818;15.964;2023-03-01T00:46:05;10.15;;;7.85;;
43996;SDS011;34318;45.818;15.964;2023-03-01T00:48:32;10.73;;;8.30;;
43996;SDS011;34318;45.818;15.964;2023-03-01T00:51:10;10.23;;;8.80;;
43996;SDS011;34318;45.818;15.964;2023-03-01T00:53:37;11.45;;;8.80;;
43996;SDS011;34318;45.818;15.964;2023-03-01T00:56:05;8.60;;;7.65;;
43996;SDS011;34318;45.818;15.964;2023-03-01T00:58:33;10.57;;;7.82;;
43996;SDS011;34318;45.818;15.964;2023-03-01T01:01:01;9.02;;;7.47;;
43996;SDS011;34318;45.818;15.964;2023-03-01T01:03:28;8.75;;;7.85;;
43996;SDS011;34318;45.818;15.964;2023-03-01T01:05:55;9.48;;;8.00;;
43996;SDS011;34318;45.818;15.964;2023-03-01T01:08:22;11.13;;;8.07;;
43996;SDS011;34318;45.818;15.964;2023-03-01T01:10:49;8.27;;;7.47;;
43996;SDS011;34318;45.818;15.964;2023-03-01T01:13:17;8.80;;;7.90;;
43996;SDS011;34318;45.818;15.964;2023-03-01T01:15:45;9.32;;;8.43;;
43996;SDS011;34318;45.818;15.964;2023-03-01T01:18:12;9.45;;;8.55;;
43996;SDS011;34318;45.818;15.964;2023-03-01T01:20:40;10.07;;;8.23;;
43996;SDS011;34318;45.818;15.964;2023-03-01T01:23:07;8.95;;;8.05;;
43996;SDS011;34318;45.818;15.964;2023-03-01T01:25:35;9.45;;;8.48;;
43996;SDS011;34318;45.818;15.964;2023-03-01T01:28:03;9.10;;;8.15;;
43996;SDS011;34318;45.818;15.964;2023-03-01T01:30:30;9.32;;;8.32;;
43996;SDS011;34318;45.818;15.964;2023-03-01T01:32:57;15.80;;;8.85;;
43996;SDS011;34318;45.818;15.964;2023-03-01T01:35:24;9.82;;;8.40;;
43996;SDS011;34318;45.818;15.964;2023-03-01T01:37:52;7.90;;;7.15;;
43996;SDS011;34318;45.818;15.964;2023-03-01T01:40:19;9.38;;;7.90;;
43996;SDS011;34318;45.818;15.964;2023-03-01T01:42:46;9.60;;;8.18;;
43996;SDS011;34318;45.818;15.964;2023-03-01T01:47:53;8.40;;;7.60;;
43996;SDS011;34318;45.818;15.964;2023-03-01T01:50:21;8.38;;;7.50;;
43996;SDS011;34318;45.818;15.964;2023-03-01T01:52:49;9.20;;;8.23;;
43996;SDS011;34318;45.818;15.964;2023-03-01T01:55:21;9.05;;;7.43;;
43996;SDS011;34318;45.818;15.964;2023-03-01T01:57:51;9.13;;;8.15;;
43996;SDS011;34318;45.818;15.964;2023-03-01T02:00:21;9.15;;;7.53;;
43996;SDS011;34318;45.818;15.964;2023-03-01T02:02:49;8.52;;;7.63;;
43996;SDS011;34318;45.818;15.964;2023-03-01T02:05:24;8.60;;;7.78;;
43996;SDS011;34318;45.818;15.964;2023-03-01T02:07:52;8.98;;;7.45;;
43996;SDS011;34318;45.818;15.964;2023-03-01T02:10:20;8.70;;;7.80;;
43996;SDS011;34318;45.818;15.964;2023-03-01T02:12:48;8.98;;;8.10;;
43996;SDS011;34318;45.818;15.964;2023-03-01T02:15:15;9.57;;;7.63;;
43996;SDS011;34318;45.818;15.964;2023-03-01T02:17:42;8.98;;;8.05;;
43996;SDS011;34318;45.818;15.964;2023-03-01T02:22:40;8.85;;;7.30;;
43996;SDS011;34318;45.818;15.964;2023-03-01T02:27:52;7.95;;;7.18;;
43996;SDS011;34318;45.818;15.964;2023-03-01T02:30:21;8.53;;;7.73;;
43996;SDS011;34318;45.818;15.964;2023-03-01T02:32:50;8.73;;;7.85;;
43996;SDS011;34318;45.818;15.964;2023-03-01T02:35:18;7.95;;;7.20;;
43996;SDS011;34318;45.818;15.964;2023-03-01T02:37:46;9.00;;;7.25;;
43996;SDS011;34318;45.818;15.964;2023-03-01T02:40:15;8.30;;;7.45;;
43996;SDS011;34318;45.818;15.964;2023-03-01T02:42:46;8.65;;;7.75;;
43996;SDS011;34318;45.818;15.964;2023-03-01T02:45:15;8.60;;;7.80;;
43996;SDS011;34318;45.818;15.964;2023-03-01T02:47:42;8.35;;;7.22;;
43996;SDS011;34318;45.818;15.964;2023-03-01T02:50:22;9.10;;;7.28;;
43996;SDS011;34318;45.818;15.964;2023-03-01T02:53:02;8.00;;;7.20;;
43996;SDS011;34318;45.818;15.964;2023-03-01T02:55:31;7.75;;;7.00;;
43996;SDS011;34318;45.818;15.964;2023-03-01T02:57:58;7.25;;;6.65;;
43996;SDS011;34318;45.818;15.964;2023-03-01T03:00:41;7.50;;;6.80;;
43996;SDS011;34318;45.818;15.964;2023-03-01T03:03:13;8.40;;;7.03;;
43996;SDS011;34318;45.818;15.964;2023-03-01T03:05:41;7.68;;;6.97;;
43996;SDS011;34318;45.818;15.964;2023-03-01T03:08:08;8.40;;;7.60;;
43996;SDS011;34318;45.818;15.964;2023-03-01T03:10:36;7.43;;;6.78;;
43996;SDS011;34318;45.818;15.964;2023-03-01T03:13:09;7.32;;;6.65;;
43996;SDS011;34318;45.818;15.964;2023-03-01T03:15:37;7.85;;;6.68;;
43996;SDS011;34318;45.818;15.964;2023-03-01T03:18:06;8.00;;;7.30;;
43996;SDS011;34318;45.818;15.964;2023-03-01T03:20:34;7.95;;;7.15;;
43996;SDS011;34318;45.818;15.964;2023-03-01T03:23:01;7.22;;;6.63;;
43996;SDS011;34318;45.818;15.964;2023-03-01T03:25:29;7.70;;;7.00;;
43996;SDS011;34318;45.818;15.964;2023-03-01T03:27:56;7.72;;;6.90;;
43996;SDS011;34318;45.818;15.964;2023-03-01T03:30:25;7.38;;;6.68;;
43996;SDS011;34318;45.818;15.964;2023-03-01T03:32:53;7.43;;;6.80;;
43996;SDS011;34318;45.818;15.964;2023-03-01T03:35:21;8.27;;;6.97;;
43996;SDS011;34318;45.818;15.964;2023-03-01T03:37:49;7.00;;;6.30;;
43996;SDS011;34318;45.818;15.964;2023-03-01T03:40:30;8.35;;;6.10;;
43996;SDS011;34318;45.818;15.964;2023-03-01T03:42:57;8.40;;;7.53;;
43996;SDS011;34318;45.818;15.964;2023-03-01T03:45:24;8.10;;;6.90;;
43996;SDS011;34318;45.818;15.964;2023-03-01T03:47:52;6.70;;;6.10;;
43996;SDS011;34318;45.818;15.964;2023-03-01T03:50:19;7.35;;;6.40;;
43996;SDS011;34318;45.818;15.964;2023-03-01T03:52:46;9.02;;;7.30;;
43996;SDS011;34318;45.818;15.964;2023-03-01T03:55:13;7.03;;;6.40;;
43996;SDS011;34318;45.818;15.964;2023-03-01T03:57:45;8.32;;;7.50;;
43996;SDS011;34318;45.818;15.964;2023-03-01T04:00:18;7.00;;;6.40;;
43996;SDS011;34318;45.818;15.964;2023-03-01T04:02:46;9.27;;;6.72;;
43996;SDS011;34318;45.818;15.964;2023-03-01T04:05:15;7.13;;;6.53;;
43996;SDS011;34318;45.818;15.964;2023-03-01T04:07:42;7.43;;;6.53;;
43996;SDS011;34318;45.818;15.964;2023-03-01T04:10:11;7.03;;;5.97;;
43996;SDS011;34318;45.818;15.964;2023-03-01T04:12:38;6.97;;;5.90;;
43996;SDS011;34318;45.818;15.964;2023-03-01T04:15:06;7.13;;;6.32;;
43996;SDS011;34318;45.818;15.964;2023-03-01T04:17:40;7.72;;;6.72;;
43996;SDS011;34318;45.818;15.964;2023-03-01T04:20:08;6.82;;;6.13;;
43996;SDS011;34318;45.818;15.964;2023-03-01T04:22:37;6.50;;;5.90;;
43996;SDS011;34318;45.818;15.964;2023-03-01T04:25:05;11.05;;;6.93;;
43996;SDS011;34318;45.818;15.964;2023-03-01T04:27:33;7.32;;;6.63;;
43996;SDS011;34318;45.818;15.964;2023-03-01T04:30:00;7.97;;;7.10;;
43996;SDS011;34318;45.818;15.964;2023-03-01T04:32:28;7.35;;;6.57;;
43996;SDS011;34318;45.818;15.964;2023-03-01T04:34:55;7.60;;;6.90;;
43996;SDS011;34318;45.818;15.964;2023-03-01T04:37:22;6.88;;;6.18;;
43996;SDS011;34318;45.818;15.964;2023-03-01T04:39:50;6.47;;;5.88;;
43996;SDS011;34318;45.818;15.964;2023-03-01T04:42:17;13.55;;;7.03;;
43996;SDS011;34318;45.818;15.964;2023-03-01T04:44:44;8.32;;;6.10;;
43996;SDS011;34318;45.818;15.964;2023-03-01T04:47:12;6.47;;;5.93;;
43996;SDS011;34318;45.818;15.964;2023-03-01T04:49:39;8.23;;;6.85;;
43996;SDS011;34318;45.818;15.964;2023-03-01T04:52:06;8.63;;;6.72;;
43996;SDS011;34318;45.818;15.964;2023-03-01T04:54:34;8.18;;;6.03;;
43996;SDS011;34318;45.818;15.964;2023-03-01T04:57:02;9.40;;;6.25;;
43996;SDS011;34318;45.818;15.964;2023-03-01T04:59:29;6.68;;;6.00;;
43996;SDS011;34318;45.818;15.964;2023-03-01T05:01:57;6.90;;;6.30;;
43996;SDS011;34318;45.818;15.964;2023-03-01T05:04:26;7.10;;;6.43;;
43996;SDS011;34318;45.818;15.964;2023-03-01T05:06:54;8.48;;;6.25;;
43996;SDS011;34318;45.818;15.964;2023-03-01T05:09:22;6.35;;;5.75;;
43996;SDS011;34318;45.818;15.964;2023-03-01T05:11:49;7.53;;;6.82;;
43996;SDS011;34318;45.818;15.964;2023-03-01T05:14:17;9.30;;;6.53;;
43996;SDS011;34318;45.818;15.964;2023-03-01T05:16:44;7.45;;;6.38;;
43996;SDS011;34318;45.818;15.964;2023-03-01T05:19:12;7.07;;;6.40;;
43996;SDS011;34318;45.818;15.964;2023-03-01T05:21:42;6.65;;;6.05;;
43996;SDS011;34318;45.818;15.964;2023-03-01T05:24:28;7.25;;;6.45;;
43996;SDS011;34318;45.818;15.964;2023-03-01T05:26:56;7.32;;;6.45;;
43996;SDS011;34318;45.818;15.964;2023-03-01T05:29:24;6.85;;;6.15;;
43996;SDS011;34318;45.818;15.964;2023-03-01T05:31:52;7.15;;;6.40;;
43996;SDS011;34318;45.818;15.964;2023-03-01T05:34:27;7.10;;;6.40;;
43996;SDS011;34318;45.818;15.964;2023-03-01T05:36:54;4.97;;;4.55;;
43996;SDS011;34318;45.818;15.964;2023-03-01T05:39:22;7.20;;;5.80;;
43996;SDS011;34318;45.818;15.964;2023-03-01T05:41:53;6.40;;;5.80;;
43996;SDS011;34318;45.818;15.964;2023-03-01T05:44:21;7.18;;;6.47;;
43996;SDS011;34318;45.818;15.964;2023-03-01T05:46:48;6.15;;;5.65;;
43996;SDS011;34318;45.818;15.964;2023-03-01T05:49:15;6.60;;;6.00;;
43996;SDS011;34318;45.818;15.964;2023-03-01T05:51:43;6.63;;;6.00;;
43996;SDS011;34318;45.818;15.964;2023-03-01T05:54:14;6.70;;;6.00;;
43996;SDS011;34318;45.818;15.964;2023-03-01T05:56:41;10.45;;;6.22;;
43996;SDS011;34318;45.818;15.964;2023-03-01T05:59:08;6.70;;;5.55;;
43996;SDS011;34318;45.818;15.964;2023-03-01T06:01:35;8.23;;;6.03;;
43996;SDS011;34318;45.818;15.964;2023-03-01T06:04:03;6.88;;;5.97;;
43996;SDS011;34318;45.818;15.964;2023-03-01T06:06:34;10.25;;;6.07;;
43996;SDS011;34318;45.818;15.964;2023-03-01T06:09:04;8.02;;;6.57;;
43996;SDS011;34318;45.818;15.964;2023-03-01T06:11:33;10.55;;;6.03;;
43996;SDS011;34318;45.818;15.964;2023-03-01T06:14:01;9.02;;;6.13;;
43996;SDS011;34318;45.818;15.964;2023-03-01T06:16:28;7.47;;;5.55;;
43996;SDS011;34318;45.818;15.964;2023-03-01T06:18:56;10.20;;;5.85;;
43996;SDS011;34318;45.818;15.964;2023-03-01T06:21:23;9.32;;;6.38;;
43996;SDS011;34318;45.818;15.964;2023-03-01T06:23:50;9.40;;;6.40;;
43996;SDS011;34318;45.818;15.964;2023-03-01T06:26:18;10.07;;;6.57;;
43996;SDS011;34318;45.818;15.964;2023-03-01T06:28:45;8.55;;;5.60;;
43996;SDS011;34318;45.818;15.964;2023-03-01T06:31:12;13.23;;;5.93;;
43996;SDS011;34318;45.818;15.964;2023-03-01T06:33:40;8.13;;;5.65;;
43996;SDS011;34318;45.818;15.964;2023-03-01T06:36:07;9.55;;;6.60;;
43996;SDS011;34318;45.818;15.964;2023-03-01T06:38:36;7.88;;;5.93;;
43996;SDS011;34318;45.818;15.964;2023-03-01T06:41:03;9.82;;;7.43;;
43996;SDS011;34318;45.818;15.964;2023-03-01T06:43:30;10.80;;;7.43;;
43996;SDS011;34318;45.818;15.964;2023-03-01T06:45:57;13.60;;;8.00;;
43996;SDS011;34318;45.818;15.964;2023-03-01T06:48:25;12.02;;;7.97;;
43996;SDS011;34318;45.818;15.964;2023-03-01T06:50:52;11.40;;;8.23;;
43996;SDS011;34318;45.818;15.964;2023-03-01T06:53:19;12.70;;;8.50;;
43996;SDS011;34318;45.818;15.964;2023-03-01T06:55:46;10.25;;;7.32;;
43996;SDS011;34318;45.818;15.964;2023-03-01T06:58:14;12.68;;;8.73;;
43996;SDS011;34318;45.818;15.964;2023-03-01T07:00:41;17.88;;;9.80;;
43996;SDS011;34318;45.818;15.964;2023-03-01T07:03:09;11.07;;;8.23;;
43996;SDS011;34318;45.818;15.964;2023-03-01T07:05:36;10.50;;;8.38;;
43996;SDS011;34318;45.818;15.964;2023-03-01T07:08:04;12.93;;;8.63;;
43996;SDS011;34318;45.818;15.964;2023-03-01T07:10:31;14.05;;;8.30;;
43996;SDS011;34318;45.818;15.964;2023-03-01T07:12:58;18.73;;;10.15;;
43996;SDS011;34318;45.818;15.964;2023-03-01T07:15:26;12.93;;;7.97;;
43996;SDS011;34318;45.818;15.964;2023-03-01T07:17:53;20.33;;;8.80;;
43996;SDS011;34318;45.818;15.964;2023-03-01T07:20:21;10.98;;;8.40;;
43996;SDS011;34318;45.818;15.964;2023-03-01T07:22:51;13.20;;;8.52;;
43996;SDS011;34318;45.818;15.964;2023-03-01T07:25:18;14.60;;;9.90;;
43996;SDS011;34318;45.818;15.964;2023-03-01T07:27:49;13.85;;;9.48;;
43996;SDS011;34318;45.818;15.964;2023-03-01T07:30:17;14.77;;;8.93;;
43996;SDS011;34318;45.818;15.964;2023-03-01T07:32:45;10.70;;;9.32;;
43996;SDS011;34318;45.818;15.964;2023-03-01T07:35:12;10.75;;;8.63;;
43996;SDS011;34318;45.818;15.964;2023-03-01T07:37:41;12.32;;;9.05;;
43996;SDS011;34318;45.818;15.964;2023-03-01T07:40:08;10.52;;;9.23;;
43996;SDS011;34318;45.818;15.964;2023-03-01T07:42:36;11.00;;;8.25;;
43996;SDS011;34318;45.818;15.964;2023-03-01T07:45:04;13.20;;;9.27;;
43996;SDS011;34318;45.818;15.964;2023-03-01T07:47:31;10.30;;;8.82;;
43996;SDS011;34318;45.818;15.964;2023-03-01T07:49:58;16.05;;;9.35;;
43996;SDS011;34318;45.818;15.964;2023-03-01T07:52:27;12.07;;;8.68;;
43996;SDS011;34318;45.818;15.964;2023-03-01T07:54:54;9.73;;;7.93;;
43996;SDS011;34318;45.818;15.964;2023-03-01T07:57:22;11.65;;;8.50;;
43996;SDS011;34318;45.818;15.964;2023-03-01T07:59:49;9.93;;;8.13;;
43996;SDS011;34318;45.818;15.964;2023-03-01T08:02:16;9.20;;;7.47;;
43996;SDS011;34318;45.818;15.964;2023-03-01T08:04:43;12.05;;;8.02;;
43996;SDS011;34318;45.818;15.964;2023-03-01T08:07:10;9.25;;;7.35;;
43996;SDS011;34318;45.818;15.964;2023-03-01T08:09:38;10.02;;;8.15;;
43996;SDS011;34318;45.818;15.964;2023-03-01T08:12:05;10.23;;;8.13;;
43996;SDS011;34318;45.818;15.964;2023-03-01T08:14:32;9.63;;;7.47;;
43996;SDS011;34318;45.818;15.964;2023-03-01T08:16:59;8.25;;;7.45;;
43996;SDS011;34318;45.818;15.964;2023-03-01T08:19:29;11.60;;;8.23;;
43996;SDS011;34318;45.818;15.964;2023-03-01T08:21:56;11.43;;;8.60;;
43996;SDS011;34318;45.818;15.964;2023-03-01T08:24:24;9.02;;;7.53;;
43996;SDS011;34318;45.818;15.964;2023-03-01T08:26:51;11.60;;;7.25;;
43996;SDS011;34318;45.818;15.964;2023-03-01T08:29:19;8.10;;;7.20;;
43996;SDS011;34318;45.818;15.964;2023-03-01T08:31:46;8.93;;;7.20;;
43996;SDS011;34318;45.818;15.964;2023-03-01T08:34:15;14.95;;;7.90;;
43996;SDS011;34318;45.818;15.964;2023-03-01T08:36:43;12.77;;;8.05;;
43996;SDS011;34318;45.818;15.964;2023-03-01T08:39:11;7.47;;;6.78;;
43996;SDS011;34318;45.818;15.964;2023-03-01T08:41:39;10.27;;;7.57;;
43996;SDS011;34318;45.818;15.964;2023-03-01T08:44:06;8.10;;;6.90;;
43996;SDS011;34318;45.818;15.964;2023-03-01T08:46:35;10.70;;;7.82;;
43996;SDS011;34318;45.818;15.964;2023-03-01T08:49:03;10.32;;;7.60;;
43996;SDS011;34318;45.818;15.964;2023-03-01T08:51:31;8.85;;;7.13;;
43996;SDS011;34318;45.818;15.964;2023-03-01T08:54:03;7.68;;;6.80;;
43996;SDS011;34318;45.818;15.964;2023-03-01T08:56:31;9.32;;;7.70;;
43996;SDS011;34318;45.818;15.964;2023-03-01T08:58:58;10.60;;;6.45;;
43996;SDS011;34318;45.818;15.964;2023-03-01T09:01:26;7.97;;;7.18;;
43996;SDS011;34318;45.818;15.964;2023-03-01T09:03:53;7.18;;;6.47;;
43996;SDS011;34318;45.818;15.964;2023-03-01T09:06:20;7.32;;;6.63;;
43996;SDS011;34318;45.818;15.964;2023-03-01T09:08:48;7.45;;;6.25;;
43996;SDS011;34318;45.818;15.964;2023-03-01T09:11:20;7.90;;;6.60;;
43996;SDS011;34318;45.818;15.964;2023-03-01T09:13:48;7.90;;;6.03;;
43996;SDS011;34318;45.818;15.964;2023-03-01T09:16:16;9.90;;;7.60;;
43996;SDS011;34318;45.818;15.964;2023-03-01T09:18:44;7.60;;;6.68;;
43996;SDS011;34318;45.818;15.964;2023-03-01T09:21:13;7.65;;;6.75;;
43996;SDS011;34318;45.818;15.964;2023-03-01T09:23:41;8.43;;;6.40;;
43996;SDS011;34318;45.818;15.964;2023-03-01T09:26:09;6.85;;;6.10;;
43996;SDS011;34318;45.818;15.964;2023-03-01T09:28:37;6.85;;;6.15;;
43996;SDS011;34318;45.818;15.964;2023-03-01T09:31:04;8.85;;;7.43;;
43996;SDS011;34318;45.818;15.964;2023-03-01T09:33:32;7.95;;;7.18;;
43996;SDS011;34318;45.818;15.964;2023-03-01T09:36:03;7.40;;;6.65;;
43996;SDS011;34318;45.818;15.964;2023-03-01T09:38:31;7.30;;;6.60;;
43996;SDS011;34318;45.818;15.964;2023-03-01T09:40:59;10.07;;;7.30;;
43996;SDS011;34318;45.818;15.964;2023-03-01T09:43:29;9.00;;;6.75;;
43996;SDS011;34318;45.818;15.964;2023-03-01T09:45:59;7.95;;;6.72;;
43996;SDS011;34318;45.818;15.964;2023-03-01T09:48:32;8.55;;;6.60;;
43996;SDS011;34318;45.818;15.964;2023-03-01T09:51:01;7.45;;;6.75;;
43996;SDS011;34318;45.818;15.964;2023-03-01T09:53:33;8.48;;;6.13;;
43996;SDS011;34318;45.818;15.964;2023-03-01T09:58:34;9.00;;;6.50;;
43996;SDS011;34318;45.818;15.964;2023-03-01T10:06:25;8.30;;;5.93;;
43996;SDS011;34318;45.818;15.964;2023-03-01T10:09:02;9.35;;;5.65;;
43996;SDS011;34318;45.818;15.964;2023-03-01T10:11:31;8.48;;;5.90;;
43996;SDS011;34318;45.818;15.964;2023-03-01T10:14:09;6.63;;;6.03;;
43996;SDS011;34318;45.818;15.964;2023-03-01T10:16:43;6.45;;;5.65;;
43996;SDS011;34318;45.818;15.964;2023-03-01T10:19:14;7.28;;;6.40;;
43996;SDS011;34318;45.818;15.964;2023-03-01T10:21:45;6.65;;;5.82;;
43996;SDS011;34318;45.818;15.964;2023-03-01T10:24:16;8.23;;;5.82;;
43996;SDS011;34318;45.818;15.964;2023-03-01T10:29:16;10.50;;;7.03;;
43996;SDS011;34318;45.818;15.964;2023-03-01T10:31:49;7.05;;;6.32;;
43996;SDS011;34318;45.818;15.964;2023-03-01T10:34:18;7.25;;;5.95;;
43996;SDS011;34318;45.818;15.964;2023-03-01T10:36:49;7.10;;;5.53;;
43996;SDS011;34318;45.818;15.964;2023-03-01T10:39:21;10.52;;;6.45;;
43996;SDS011;34318;45.818;15.964;2023-03-01T10:41:52;7.55;;;5.82;;
43996;SDS011;34318;45.818;15.964;2023-03-01T10:47:40;15.40;;;9.10;;
43996;SDS011;34318;45.818;15.964;2023-03-01T10:50:01;24.33;;;11.45;;
43996;SDS011;34318;45.818;15.964;2023-03-01T10:52:34;25.27;;;12.15;;
43996;SDS011;34318;45.818;15.964;2023-03-01T10:55:03;37.67;;;16.77;;
43996;SDS011;34318;45.818;15.964;2023-03-01T10:57:32;42.33;;;16.98;;
43996;SDS011;34318;45.818;15.964;2023-03-01T11:00:19;36.80;;;16.25;;
43996;SDS011;34318;45.818;15.964;2023-03-01T11:02:48;31.23;;;16.30;;
43996;SDS011;34318;45.818;15.964;2023-03-01T11:05:16;31.38;;;15.35;;
43996;SDS011;34318;45.818;15.964;2023-03-01T11:07:55;30.48;;;15.88;;
43996;SDS011;34318;45.818;15.964;2023-03-01T11:10:29;28.58;;;14.57;;
43996;SDS011;34318;45.818;15.964;2023-03-01T11:15:33;39.20;;;17.27;;
43996;SDS011;34318;45.818;15.964;2023-03-01T11:18:01;34.45;;;15.52;;
43996;SDS011;34318;45.818;15.964;2023-03-01T11:20:39;31.00;;;15.43;;
43996;SDS011;34318;45.818;15.964;2023-03-01T11:23:10;25.38;;;14.43;;
43996;SDS011;34318;45.818;15.964;2023-03-01T11:25:48;25.10;;;16.02;;
43996;SDS011;34318;45.818;15.964;2023-03-01T11:28:17;31.25;;;14.48;;
43996;SDS011;34318;45.818;15.964;2023-03-01T11:33:41;31.92;;;15.57;;
43996;SDS011;34318;45.818;15.964;2023-03-01T11:38:42;33.47;;;14.75;;
43996;SDS011;34318;45.818;15.964;2023-03-01T11:41:20;26.58;;;13.45;;
43996;SDS011;34318;45.818;15.964;2023-03-01T11:56:46;24.35;;;12.40;;
43996;SDS011;34318;45.818;15.964;2023-03-01T11:59:27;25.08;;;12.73;;
43996;SDS011;34318;45.818;15.964;2023-03-01T12:06:59;23.38;;;12.15;;
43996;SDS011;34318;45.818;15.964;2023-03-01T12:09:32;19.75;;;11.05;;
43996;SDS011;34318;45.818;15.964;2023-03-01T12:24:54;19.55;;;10.43;;
43996;SDS011;34318;45.818;15.964;2023-03-01T12:48:13;16.95;;;9.60;;
43996;SDS011;34318;45.818;15.964;2023-03-01T12:50:46;14.73;;;9.43;;
43996;SDS011;34318;45.818;15.964;2023-03-01T12:53:24;15.05;;;9.70;;
43996;SDS011;34318;45.818;15.964;2023-03-01T12:55:53;14.98;;;9.43;;
43996;SDS011;34318;45.818;15.964;2023-03-01T12:58:30;14.45;;;8.98;;
43996;SDS011;34318;45.818;15.964;2023-03-01T13:11:47;17.92;;;13.45;;
43996;SDS011;34318;45.818;15.964;2023-03-01T13:16:49;20.58;;;15.18;;
43996;SDS011;34318;45.818;15.964;2023-03-01T13:19:21;26.35;;;15.52;;
43996;SDS011;34318;45.818;15.964;2023-03-01T13:21:49;17.77;;;14.80;;
43996;SDS011;34318;45.818;15.964;2023-03-01T13:27:08;16.77;;;14.77;;
43996;SDS011;34318;45.818;15.964;2023-03-01T13:29:48;19.77;;;12.88;;
43996;SDS011;34318;45.818;15.964;2023-03-01T13:37:43;16.25;;;13.25;;
43996;SDS011;34318;45.818;15.964;2023-03-01T13:42:47;18.65;;;13.27;;
43996;SDS011;34318;45.818;15.964;2023-03-01T13:45:40;15.98;;;12.32;;
43996;SDS011;34318;45.818;15.964;2023-03-01T13:48:18;19.73;;;13.15;;
43996;SDS011;34318;45.818;15.964;2023-03-01T13:50:59;20.23;;;13.70;;
43996;SDS011;34318;45.818;15.964;2023-03-01T13:53:28;18.88;;;13.00;;
43996;SDS011;34318;45.818;15.964;2023-03-01T13:56:06;14.98;;;12.85;;
43996;SDS011;34318;45.818;15.964;2023-03-01T13:58:44;17.00;;;12.57;;
43996;SDS011;34318;45.818;15.964;2023-03-01T14:01:23;21.45;;;13.45;;
43996;SDS011;34318;45.818;15.964;2023-03-01T14:03:50;14.40;;;12.82;;
43996;SDS011;34318;45.818;15.964;2023-03-01T14:06:22;14.20;;;12.52;;
43996;SDS011;34318;45.818;15.964;2023-03-01T14:08:59;16.30;;;11.75;;
43996;SDS011;34318;45.818;15.964;2023-03-01T14:19:26;15.82;;;12.52;;
43996;SDS011;34318;45.818;15.964;2023-03-01T14:22:04;17.88;;;12.10;;
43996;SDS011;34318;45.818;15.964;2023-03-01T14:24:34;19.50;;;11.90;;
43996;SDS011;34318;45.818;15.964;2023-03-01T14:27:04;14.15;;;11.55;;
43996;SDS011;34318;45.818;15.964;2023-03-01T14:29:36;15.20;;;11.23;;
43996;SDS011;34318;45.818;15.964;2023-03-01T14:34:44;18.17;;;12.60;;
43996;SDS011;34318;45.818;15.964;2023-03-01T14:37:33;20.73;;;12.38;;
43996;SDS011;34318;45.818;15.964;2023-03-01T14:39:59;19.58;;;12.35;;
43996;SDS011;34318;45.818;15.964;2023-03-01T14:42:28;17.70;;;12.52;;
43996;SDS011;34318;45.818;15.964;2023-03-01T14:44:56;18.50;;;12.07;;
43996;SDS011;34318;45.818;15.964;2023-03-01T14:47:31;19.50;;;12.25;;
43996;SDS011;34318;45.818;15.964;2023-03-01T14:50:07;23.60;;;13.15;;
43996;SDS011;34318;45.818;15.964;2023-03-01T14:52:36;16.30;;;12.65;;
43996;SDS011;34318;45.818;15.964;2023-03-01T14:55:27;16.25;;;12.38;;
43996;SDS011;34318;45.818;15.964;2023-03-01T14:57:52;15.27;;;11.85;;
43996;SDS011;34318;45.818;15.964;2023-03-01T15:00:20;21.65;;;12.93;;
43996;SDS011;34318;45.818;15.964;2023-03-01T15:02:49;15.52;;;11.32;;
43996;SDS011;34318;45.818;15.964;2023-03-01T15:05:18;16.65;;;11.85;;
43996;SDS011;34318;45.818;15.964;2023-03-01T15:07:47;18.95;;;11.73;;
43996;SDS011;34318;45.818;15.964;2023-03-01T15:10:17;14.70;;;10.60;;
43996;SDS011;34318;45.818;15.964;2023-03-01T15:12:46;16.20;;;11.98;;
43996;SDS011;34318;45.818;15.964;2023-03-01T15:17:54;19.25;;;11.60;;
43996;SDS011;34318;45.818;15.964;2023-03-01T15:20:24;16.10;;;11.23;;
43996;SDS011;34318;45.818;15.964;2023-03-01T15:22:56;14.93;;;10.93;;
43996;SDS011;34318;45.818;15.964;2023-03-01T15:25:24;14.23;;;10.90;;
43996;SDS011;34318;45.818;15.964;2023-03-01T15:27:53;13.27;;;10.48;;
43996;SDS011;34318;45.818;15.964;2023-03-01T15:30:22;13.55;;;11.45;;
43996;SDS011;34318;45.818;15.964;2023-03-01T15:35:46;13.50;;;10.35;;
43996;SDS011;34318;45.818;15.964;2023-03-01T15:38:23;13.23;;;10.20;;
43996;SDS011;34318;45.818;15.964;2023-03-01T15:40:51;16.40;;;10.57;;
43996;SDS011;34318;45.818;15.964;2023-03-01T15:46:04;20.27;;;10.25;;
43996;SDS011;34318;45.818;15.964;2023-03-01T15:48:32;13.75;;;10.70;;
43996;SDS011;34318;45.818;15.964;2023-03-01T15:50:59;16.13;;;10.43;;
43996;SDS011;34318;45.818;15.964;2023-03-01T15:53:27;12.55;;;9.70;;
43996;SDS011;34318;45.818;15.964;2023-03-01T15:55:55;12.93;;;10.68;;
43996;SDS011;34318;45.818;15.964;2023-03-01T15:58:25;11.63;;;9.77;;
43996;SDS011;34318;45.818;15.964;2023-03-01T16:00:52;13.40;;;10.55;;
43996;SDS011;34318;45.818;15.964;2023-03-01T16:03:27;15.73;;;10.15;;
43996;SDS011;34318;45.818;15.964;2023-03-01T16:05:54;11.63;;;9.50;;
43996;SDS011;34318;45.818;15.964;2023-03-01T16:08:21;12.55;;;9.75;;
43996;SDS011;34318;45.818;15.964;2023-03-01T16:10:49;11.77;;;10.45;;
43996;SDS011;34318;45.818;15.964;2023-03-01T16:13:17;14.65;;;10.13;;
43996;SDS011;34318;45.818;15.964;2023-03-01T16:15:45;16.63;;;9.85;;
43996;SDS011;34318;45.818;15.964;2023-03-01T16:18:12;14.50;;;9.60;;
43996;SDS011;34318;45.818;15.964;2023-03-01T16:20:40;10.73;;;9.30;;
43996;SDS011;34318;45.818;15.964;2023-03-01T16:23:07;11.68;;;9.55;;
43996;SDS011;34318;45.818;15.964;2023-03-01T16:25:35;13.32;;;9.88;;
43996;SDS011;34318;45.818;15.964;2023-03-01T16:28:02;19.77;;;9.52;;
43996;SDS011;34318;45.818;15.964;2023-03-01T16:30:35;10.55;;;9.00;;
43996;SDS011;34318;45.818;15.964;2023-03-01T16:33:02;13.20;;;10.40;;
43996;SDS011;34318;45.818;15.964;2023-03-01T16:35:50;15.70;;;10.60;;
43996;SDS011;34318;45.818;15.964;2023-03-01T16:38:17;13.32;;;9.45;;
43996;SDS011;34318;45.818;15.964;2023-03-01T16:40:46;15.63;;;9.48;;
43996;SDS011;34318;45.818;15.964;2023-03-01T16:43:14;13.05;;;10.15;;